| time (UTC) | temp F | wind direction | speed knots | gust knots | rain 1hr in | rain 24hr in | rain mn in | humidity % | barometer mb |
| 20260503011505 | 57 | 227 | 0.0 | 0.9 | 0.00 | 0.00 | 0.00 | 45 | 1009.6 |
| 20260503011006 | 57 | 228 | 0.0 | 2.6 | 0.00 | 0.00 | 0.00 | 43 | 1009.6 |
| 20260503005005 | 59 | 251 | 0.0 | 0.9 | 0.00 | 0.00 | 0.00 | 40 | 1009.8 |
| 20260503004506 | 59 | 252 | 0.9 | 2.6 | 0.00 | 0.00 | 0.00 | 40 | 1009.8 |
| 20260503004005 | 59 | 259 | 0.9 | 2.6 | 0.00 | 0.00 | 0.00 | 41 | 1009.8 |
| 20260503003505 | 59 | 226 | 1.7 | 2.6 | 0.00 | 0.00 | 0.00 | 39 | 1009.9 |
| 20260503003005 | 59 | 241 | 0.9 | 2.6 | 0.00 | 0.00 | 0.00 | 40 | 1009.9 |
| 20260503002505 | 59 | 259 | 1.7 | 4.3 | 0.00 | 0.00 | 0.00 | 38 | 1010.2 |
| 20260503002005 | 59 | 271 | 0.9 | 2.6 | 0.00 | 0.00 | 0.00 | 39 | 1010.2 |
| 20260503001505 | 60 | 257 | 0.0 | 2.6 | 0.00 | 0.00 | 0.00 | 39 | 1010.1 |
| 20260503001005 | 60 | 261 | 0.9 | 2.6 | 0.00 | 0.00 | 0.00 | 38 | 1010.2 |
| 20260503000505 | 60 | 256 | 0.9 | 2.6 | 0.00 | 0.00 | 0.00 | 39 | 1010.3 |
| 20260503000005 | 60 | 261 | 1.7 | 4.3 | 0.00 | 0.00 | 0.00 | 39 | 1010.3 |
| 20260502235505 | 60 | 230 | 2.6 | 6.1 | 0.00 | 0.00 | 0.00 | 37 | 1010.4 |
| 20260502235006 | 60 | 244 | 0.9 | 4.3 | 0.00 | 0.00 | 0.00 | 38 | 1010.5 |
| 20260502234505 | 60 | 231 | 1.7 | 2.6 | 0.00 | 0.00 | 0.00 | 36 | 1010.5 |
| 20260502234005 | 60 | 293 | 3.5 | 6.1 | 0.00 | 0.00 | 0.00 | 36 | 1010.5 |
| 20260502233505 | 60 | 264 | 3.5 | 7.0 | 0.00 | 0.00 | 0.00 | 36 | 1010.5 |
| 20260502233005 | 60 | 271 | 1.7 | 4.3 | 0.00 | 0.00 | 0.00 | 38 | 1010.5 |
| 20260502232504 | 60 | 264 | 1.7 | 4.3 | 0.00 | 0.00 | 0.00 | 37 | 1010.7 |
| 20260502231505 | 60 | 241 | 2.6 | 7.0 | 0.00 | 0.00 | 0.00 | 37 | 1010.8 |
| 20260502231005 | 60 | 235 | 2.6 | 6.1 | 0.00 | 0.00 | 0.00 | 36 | 1010.9 |
| 20260502230505 | 60 | 242 | 2.6 | 6.1 | 0.00 | 0.00 | 0.00 | 36 | 1010.9 |
| 20260502230005 | 60 | 243 | 2.6 | 6.1 | 0.00 | 0.00 | 0.00 | 37 | 1011.0 |
| 20260502225005 | 61 | 234 | 2.6 | 4.3 | 0.00 | 0.00 | 0.00 | 35 | 1011.0 |
| 20260502224505 | 61 | 267 | 1.7 | 4.3 | 0.00 | 0.00 | 0.00 | 36 | 1011.0 |
| 20260502224005 | 61 | 263 | 1.7 | 7.8 | 0.00 | 0.00 | 0.00 | 35 | 1011.2 |
| 20260502223005 | 62 | 230 | 2.6 | 8.7 | 0.00 | 0.00 | 0.00 | 34 | 1011.2 |
| 20260502222505 | 63 | 237 | 5.2 | 8.7 | 0.00 | 0.00 | 0.00 | 33 | 1011.2 |
| 20260502221505 | 62 | 226 | 2.6 | 7.0 | 0.00 | 0.00 | 0.00 | 35 | 1011.2 |
| 20260502221005 | 62 | 256 | 2.6 | 7.8 | 0.00 | 0.00 | 0.00 | 34 | 1011.3 |
| 20260502220505 | 62 | 225 | 2.6 | 6.1 | 0.00 | 0.00 | 0.00 | 35 | 1011.4 |
| 20260502220005 | 62 | 277 | 3.5 | 7.8 | 0.00 | 0.00 | 0.00 | 34 | 1011.3 |
| 20260502215506 | 62 | 208 | 1.7 | 6.1 | 0.00 | 0.00 | 0.00 | 35 | 1011.4 |
| 20260502215005 | 62 | 236 | 1.7 | 7.0 | 0.00 | 0.00 | 0.00 | 33 | 1011.4 |
| 20260502214505 | 62 | 225 | 4.3 | 11.3 | 0.00 | 0.00 | 0.00 | 33 | 1011.6 |
| 20260502214005 | 62 | 242 | 2.6 | 10.4 | 0.00 | 0.00 | 0.00 | 32 | 1011.6 |
| 20260502213506 | 62 | 247 | 1.7 | 6.1 | 0.00 | 0.00 | 0.00 | 35 | 1011.7 |
| 20260502213005 | 62 | 285 | 2.6 | 6.1 | 0.00 | 0.00 | 0.00 | 33 | 1011.7 |
| 20260502212506 | 61 | 265 | 2.6 | 5.2 | 0.00 | 0.00 | 0.00 | 34 | 1011.8 |
| 20260502212005 | 61 | 249 | 1.7 | 7.0 | 0.00 | 0.00 | 0.00 | 34 | 1011.8 |
| 20260502211505 | 61 | 19 | 4.3 | 14.8 | 0.00 | 0.00 | 0.00 | 32 | 1011.8 |
| 20260502211005 | 61 | 195 | 1.7 | 6.1 | 0.00 | 0.00 | 0.00 | 33 | 1011.8 |
| 20260502210505 | 61 | 258 | 2.6 | 7.8 | 0.00 | 0.00 | 0.00 | 33 | 1011.9 |
| 20260502210005 | 61 | 242 | 2.6 | 7.0 | 0.00 | 0.00 | 0.00 | 31 | 1012.0 |
| 20260502205504 | 61 | 238 | 4.3 | 10.4 | 0.00 | 0.00 | 0.00 | 33 | 1012.1 |
| 20260502204505 | 60 | 222 | 0.9 | 7.0 | 0.00 | 0.00 | 0.00 | 30 | 1012.4 |
| 20260502204005 | 61 | 248 | 5.2 | 12.2 | 0.00 | 0.00 | 0.00 | 31 | 1012.4 |
| 20260502203505 | 62 | 245 | 1.7 | 7.0 | 0.00 | 0.00 | 0.00 | 29 | 1012.4 |
| 20260502203005 | 61 | 256 | 2.6 | 7.0 | 0.00 | 0.00 | 0.00 | 30 | 1012.5 |
| 20260502202504 | 61 | 228 | 3.5 | 10.4 | 0.00 | 0.00 | 0.00 | 31 | 1012.6 |
| 20260502202005 | 61 | 334 | 1.7 | 7.0 | 0.00 | 0.00 | 0.00 | 32 | 1012.6 |
| 20260502201006 | 61 | 292 | 1.7 | 6.1 | 0.00 | 0.00 | 0.00 | 30 | 1012.8 |
| 20260502200505 | 61 | 264 | 3.5 | 7.0 | 0.00 | 0.00 | 0.00 | 30 | 1012.7 |
| 20260502200005 | 61 | 229 | 0.9 | 6.1 | 0.00 | 0.00 | 0.00 | 30 | 1012.8 |
| 20260502195506 | 61 | 4 | 0.9 | 6.1 | 0.00 | 0.00 | 0.00 | 29 | 1013.0 |
| 20260502195005 | 61 | 250 | 2.6 | 10.4 | 0.00 | 0.00 | 0.00 | 30 | 1013.0 |
| 20260502194504 | 61 | 234 | 2.6 | 7.8 | 0.00 | 0.00 | 0.00 | 31 | 1013.2 |
| 20260502193005 | 61 | 207 | 1.7 | 6.1 | 0.00 | 0.00 | 0.00 | 29 | 1013.5 |
| 20260502192505 | 60 | 350 | 1.7 | 6.1 | 0.00 | 0.00 | 0.00 | 29 | 1013.5 |
| 20260502192005 | 60 | 331 | 0.9 | 5.2 | 0.00 | 0.00 | 0.00 | 30 | 1013.8 |
| 20260502191505 | 60 | 252 | 1.7 | 5.2 | 0.00 | 0.00 | 0.00 | 28 | 1013.9 |
| 20260502191006 | 60 | 239 | 1.7 | 7.0 | 0.00 | 0.00 | 0.00 | 28 | 1014.0 |
| 20260502190505 | 60 | 247 | 4.3 | 10.4 | 0.00 | 0.00 | 0.00 | 28 | 1014.0 |
| 20260502190005 | 60 | 3 | 1.7 | 5.2 | 0.00 | 0.00 | 0.00 | 30 | 1014.0 |
| 20260502185505 | 60 | 246 | 2.6 | 5.2 | 0.00 | 0.00 | 0.00 | 30 | 1014.1 |
| 20260502183505 | 60 | 351 | 4.3 | 7.0 | 0.00 | 0.00 | 0.00 | 32 | 1014.3 |
| 20260502183005 | 60 | 269 | 1.7 | 4.3 | 0.00 | 0.00 | 0.00 | 29 | 1014.5 |
| 20260502182006 | 60 | 270 | 3.5 | 8.7 | 0.00 | 0.00 | 0.00 | 31 | 1014.4 |
| 20260502181505 | 60 | 208 | 1.7 | 7.8 | 0.00 | 0.00 | 0.00 | 30 | 1014.4 |
| 20260502180505 | 59 | 298 | 0.9 | 8.7 | 0.00 | 0.00 | 0.00 | 31 | 1014.7 |
| 20260502164005 | 56 | 233 | 2.6 | 8.7 | 0.00 | 0.00 | 0.00 | 36 | 1016.0 |
| 20260502163505 | 56 | 235 | 3.5 | 6.1 | 0.00 | 0.00 | 0.00 | 33 | 1016.1 |
| 20260502163005 | 56 | 351 | 3.5 | 7.8 | 0.00 | 0.00 | 0.00 | 34 | 1016.1 |
| 20260502162005 | 56 | 310 | 1.7 | 7.8 | 0.00 | 0.00 | 0.00 | 34 | 1016.2 |
| 20260502161504 | 56 | 331 | 4.3 | 10.4 | 0.00 | 0.00 | 0.00 | 33 | 1016.3 |
| 20260502161005 | 56 | 332 | 2.6 | 10.4 | 0.00 | 0.00 | 0.00 | 36 | 1016.3 |
| 20260502160504 | 55 | 342 | 2.6 | 10.4 | 0.00 | 0.00 | 0.00 | 36 | 1016.3 |
| 20260502152005 | 52 | 303 | 1.7 | 6.1 | 0.00 | 0.00 | 0.00 | 40 | 1016.8 |
| 20260502151005 | 51 | 255 | 1.7 | 4.3 | 0.00 | 0.00 | 0.00 | 42 | 1017.0 |
| 20260502150505 | 50 | 263 | 1.7 | 6.1 | 0.00 | 0.00 | 0.00 | 43 | 1017.0 |
| 20260502123505 | 29 | 84 | 0.0 | 0.0 | 0.00 | 0.00 | 0.00 | 86 | 1017.6 |
| 20260502123005 | 29 | 84 | 0.0 | 0.0 | 0.00 | 0.00 | 0.00 | 86 | 1017.6 |
| 20260502122005 | 28 | 84 | 0.0 | 0.0 | 0.00 | 0.00 | 0.00 | 86 | 1017.6 |
| 20260502121505 | 28 | 84 | 0.0 | 0.0 | 0.00 | 0.00 | 0.00 | 86 | 1017.7 |
| 20260502115505 | 27 | 84 | 0.0 | 0.0 | 0.00 | 0.00 | 0.00 | 86 | 1017.6 |
| 20260502115005 | 27 | 84 | 0.0 | 0.0 | 0.00 | 0.00 | 0.00 | 86 | 1017.5 |
| 20260502114505 | 27 | 84 | 0.0 | 0.0 | 0.00 | 0.00 | 0.00 | 86 | 1017.5 |
| 20260502114005 | 27 | 84 | 0.0 | 0.0 | 0.00 | 0.00 | 0.00 | 86 | 1017.6 |
| 20260502113505 | 27 | 84 | 0.0 | 0.0 | 0.00 | 0.00 | 0.00 | 86 | 1017.5 |
| 20260502113005 | 27 | 84 | 0.0 | 0.0 | 0.00 | 0.00 | 0.00 | 86 | 1017.5 |
| 20260502112504 | 27 | 84 | 0.0 | 0.0 | 0.00 | 0.00 | 0.00 | 85 | 1017.5 |
| 20260502111504 | 27 | 84 | 0.0 | 0.0 | 0.00 | 0.00 | 0.00 | 86 | 1017.5 |
| 20260502111005 | 27 | 84 | 0.0 | 0.0 | 0.00 | 0.00 | 0.00 | 85 | 1017.5 |
| 20260502110505 | 27 | 84 | 0.0 | 0.0 | 0.00 | 0.00 | 0.00 | 85 | 1017.5 |
| 20260502105504 | 27 | 84 | 0.0 | 0.0 | 0.00 | 0.00 | 0.00 | 85 | 1017.5 |
| 20260502105005 | 27 | 84 | 0.0 | 0.0 | 0.00 | 0.00 | 0.00 | 85 | 1017.6 |
| 20260502104505 | 27 | 84 | 0.0 | 0.0 | 0.00 | 0.00 | 0.00 | 85 | 1017.6 |
| 20260502103505 | 27 | 84 | 0.0 | 0.0 | 0.00 | 0.00 | 0.00 | 85 | 1017.5 |
| 20260502103004 | 27 | 84 | 0.0 | 0.0 | 0.00 | 0.00 | 0.00 | 85 | 1017.5 |
| 20260502102505 | 27 | 84 | 0.0 | 0.0 | 0.00 | 0.00 | 0.00 | 85 | 1017.6 |
| 20260502102005 | 27 | 84 | 0.0 | 0.0 | 0.00 | 0.00 | 0.00 | 85 | 1017.6 |
| 20260502101505 | 27 | 84 | 0.0 | 0.0 | 0.00 | 0.00 | 0.00 | 85 | 1017.6 |
| 20260502101005 | 27 | 84 | 0.0 | 0.0 | 0.00 | 0.00 | 0.00 | 84 | 1017.6 |
| 20260502100506 | 27 | 84 | 0.0 | 0.0 | 0.00 | 0.00 | 0.00 | 84 | 1017.6 |
| 20260502091504 | 28 | 84 | 0.0 | 0.0 | 0.00 | 0.00 | 0.00 | 84 | 1017.8 |
| 20260502091005 | 28 | 84 | 0.0 | 0.0 | 0.00 | 0.00 | 0.00 | 83 | 1017.8 |
| 20260502090504 | 28 | 84 | 0.0 | 0.0 | 0.00 | 0.00 | 0.00 | 83 | 1017.8 |
| 20260502071505 | 30 | 84 | 0.0 | 0.0 | 0.00 | 0.00 | 0.00 | 82 | 1018.2 |
| 20260502071005 | 30 | 84 | 0.0 | 0.0 | 0.00 | 0.00 | 0.00 | 83 | 1018.3 |
| 20260502070504 | 30 | 84 | 0.0 | 0.0 | 0.00 | 0.00 | 0.00 | 82 | 1018.3 |
| 20260502070004 | 30 | 84 | 0.0 | 0.0 | 0.00 | 0.00 | 0.00 | 82 | 1018.3 |
| 20260502065505 | 30 | 84 | 0.0 | 0.0 | 0.00 | 0.00 | 0.00 | 82 | 1018.3 |
| 20260502065005 | 30 | 84 | 0.0 | 0.0 | 0.00 | 0.00 | 0.00 | 82 | 1018.4 |
| 20260502064505 | 30 | 84 | 0.0 | 0.0 | 0.00 | 0.00 | 0.00 | 82 | 1018.4 |
| 20260502064005 | 30 | 84 | 0.0 | 0.0 | 0.00 | 0.00 | 0.00 | 82 | 1018.4 |
| 20260502063505 | 30 | 84 | 0.0 | 0.0 | 0.00 | 0.00 | 0.00 | 82 | 1018.5 |
| 20260502063004 | 30 | 84 | 0.0 | 0.0 | 0.00 | 0.00 | 0.00 | 81 | 1018.5 |
| 20260502062004 | 30 | 84 | 0.0 | 0.0 | 0.00 | 0.00 | 0.00 | 80 | 1018.6 |
| 20260502061505 | 30 | 84 | 0.0 | 0.0 | 0.00 | 0.00 | 0.00 | 80 | 1018.6 |
| 20260502061004 | 30 | 84 | 0.0 | 0.0 | 0.00 | 0.00 | 0.00 | 80 | 1018.5 |
| 20260502060504 | 30 | 84 | 0.0 | 0.0 | 0.00 | 0.00 | 0.00 | 80 | 1018.5 |
| 20260502060004 | 30 | 84 | 0.0 | 0.0 | 0.00 | 0.00 | 0.00 | 80 | 1018.5 |
| 20260502055504 | 30 | 84 | 0.0 | 0.0 | 0.00 | 0.00 | 0.00 | 80 | 1018.6 |
| 20260502055005 | 30 | 84 | 0.0 | 0.0 | 0.00 | 0.00 | 0.00 | 80 | 1018.5 |
| 20260502054504 | 30 | 84 | 0.0 | 0.0 | 0.00 | 0.00 | 0.00 | 80 | 1018.5 |
| 20260502054004 | 31 | 84 | 0.0 | 0.0 | 0.00 | 0.00 | 0.00 | 80 | 1018.5 |
| 20260502053005 | 31 | 84 | 0.0 | 0.0 | 0.00 | 0.00 | 0.00 | 80 | 1018.6 |
| 20260502052504 | 31 | 84 | 0.0 | 0.0 | 0.00 | 0.00 | 0.00 | 80 | 1018.6 |
| 20260502051505 | 31 | 84 | 0.0 | 0.0 | 0.00 | 0.00 | 0.00 | 80 | 1018.5 |
| 20260502051004 | 31 | 84 | 0.0 | 0.0 | 0.00 | 0.00 | 0.00 | 79 | 1018.5 |
| 20260502050504 | 31 | 84 | 0.0 | 0.0 | 0.00 | 0.00 | 0.00 | 79 | 1018.6 |
| 20260502050004 | 31 | 84 | 0.0 | 0.0 | 0.00 | 0.00 | 0.00 | 79 | 1018.6 |
| 20260502045505 | 31 | 84 | 0.0 | 0.0 | 0.00 | 0.00 | 0.00 | 79 | 1018.6 |
| 20260502044005 | 32 | 84 | 0.0 | 0.0 | 0.00 | 0.00 | 0.00 | 77 | 1018.6 |
| 20260502043504 | 32 | 84 | 0.0 | 0.0 | 0.00 | 0.00 | 0.00 | 77 | 1018.6 |
| 20260502043005 | 33 | 84 | 0.0 | 0.0 | 0.00 | 0.00 | 0.00 | 77 | 1018.6 |
| 20260502042504 | 33 | 84 | 0.0 | 0.0 | 0.00 | 0.00 | 0.00 | 76 | 1018.6 |
| 20260502042004 | 33 | 84 | 0.0 | 0.0 | 0.00 | 0.00 | 0.00 | 76 | 1018.6 |
| 20260502041504 | 33 | 84 | 0.0 | 0.0 | 0.00 | 0.00 | 0.00 | 75 | 1018.6 |
| 20260502041004 | 34 | 84 | 0.0 | 0.0 | 0.00 | 0.00 | 0.00 | 74 | 1018.6 |
| 20260502040505 | 34 | 84 | 0.0 | 0.0 | 0.00 | 0.00 | 0.00 | 73 | 1018.5 |
| 20260502040005 | 34 | 84 | 0.0 | 0.0 | 0.00 | 0.00 | 0.00 | 73 | 1018.6 |
| 20260502035505 | 35 | 84 | 0.0 | 0.0 | 0.00 | 0.00 | 0.00 | 72 | 1018.6 |
| 20260502035005 | 35 | 84 | 0.0 | 0.0 | 0.00 | 0.00 | 0.00 | 72 | 1018.6 |
| 20260502034504 | 35 | 84 | 0.0 | 0.0 | 0.00 | 0.00 | 0.00 | 71 | 1018.6 |
| 20260502034005 | 36 | 84 | 0.0 | 0.0 | 0.00 | 0.00 | 0.00 | 70 | 1018.6 |
| 20260502033504 | 36 | 84 | 0.0 | 0.0 | 0.00 | 0.00 | 0.00 | 70 | 1018.6 |
| 20260502033004 | 36 | 84 | 0.0 | 0.0 | 0.00 | 0.00 | 0.00 | 68 | 1018.7 |
| 20260502032504 | 37 | 84 | 0.0 | 0.0 | 0.00 | 0.00 | 0.00 | 68 | 1018.6 |
| 20260502032005 | 37 | 84 | 0.0 | 0.0 | 0.00 | 0.00 | 0.00 | 67 | 1018.6 |
| 20260502031005 | 38 | 84 | 0.0 | 0.0 | 0.00 | 0.00 | 0.00 | 64 | 1018.5 |
| 20260502025005 | 39 | 84 | 0.0 | 0.0 | 0.00 | 0.00 | 0.00 | 60 | 1018.4 |
| 20260502024505 | 40 | 84 | 0.0 | 0.0 | 0.00 | 0.00 | 0.00 | 60 | 1018.5 |
| 20260502024005 | 40 | 84 | 0.0 | 0.0 | 0.00 | 0.00 | 0.00 | 59 | 1018.4 |
| 20260502023505 | 40 | 84 | 0.0 | 0.0 | 0.00 | 0.00 | 0.00 | 59 | 1018.3 |
| 20260502022004 | 41 | 84 | 0.0 | 0.0 | 0.00 | 0.00 | 0.00 | 57 | 1018.3 |
| 20260502021505 | 42 | 84 | 0.0 | 0.0 | 0.00 | 0.00 | 0.00 | 56 | 1018.3 |
| 20260502021004 | 42 | 84 | 0.0 | 0.0 | 0.00 | 0.00 | 0.00 | 55 | 1018.3 |
| 20260502020005 | 43 | 84 | 0.0 | 0.0 | 0.00 | 0.00 | 0.00 | 54 | 1018.2 |
| 20260502015504 | 43 | 84 | 0.0 | 0.0 | 0.00 | 0.00 | 0.00 | 52 | 1018.2 |
| 20260502015005 | 44 | 84 | 0.0 | 0.0 | 0.00 | 0.00 | 0.00 | 53 | 1018.2 |
| 20260502014504 | 44 | 84 | 0.0 | 0.0 | 0.00 | 0.00 | 0.00 | 51 | 1018.0 |
| 20260502014005 | 45 | 84 | 0.0 | 0.0 | 0.00 | 0.00 | 0.00 | 50 | 1018.0 |
| 20260502013505 | 45 | 84 | 0.0 | 0.0 | 0.00 | 0.00 | 0.00 | 50 | 1018.0 |
| 20260502013004 | 46 | 84 | 0.0 | 0.0 | 0.00 | 0.00 | 0.00 | 49 | 1017.9 |